Time;durP1;ratioP1;P1;durP2;ratioP2;P2;SDS_P1;SDS_P2;PMS_P1;PMS_P2;Temp;Humidity;BMP_temperature;BMP_pressure;BME280_temperature;BME280_humidity;BME280_pressure;Samples;Min_cycle;Max_cycle;Signal;HPM_P1;HPM_P2
2022/12/08 00:01:33;;;;;;;15.75;8.45;;;8.20;59.60;;;;;;4998242;28;20065;-43
2022/12/08 00:04:01;;;;;;;14.95;8.65;;;8.20;59.60;;;;;;4998892;28;20053;-44
2022/12/08 00:09:21;;;;;;;13.82;8.20;;;8.20;59.50;;;;;;4998517;28;20057;-47
2022/12/08 00:11:50;;;;;;;15.13;8.70;;;8.20;59.50;;;;;;4997071;28;20065;-43
2022/12/08 00:14:17;;;;;;;15.50;8.30;;;8.20;59.50;;;;;;4998836;28;20478;-46
2022/12/08 00:16:45;;;;;;;17.05;8.88;;;8.20;59.60;;;;;;5005662;28;20049;-44
2022/12/08 00:19:12;;;;;;;12.95;8.40;;;8.20;59.50;;;;;;5000975;28;20058;-43
2022/12/08 00:21:39;;;;;;;11.40;8.70;;;8.20;59.50;;;;;;4999582;28;20489;-44
2022/12/08 00:24:08;;;;;;;14.13;8.65;;;8.20;59.50;;;;;;5005587;28;20070;-44
2022/12/08 00:26:37;;;;;;;13.70;8.18;;;8.20;59.50;;;;;;5002363;28;20058;-43
2022/12/08 00:29:04;;;;;;;12.57;8.60;;;8.20;59.50;;;;;;5002262;28;20468;-46
2022/12/08 00:31:31;;;;;;;11.65;8.20;;;8.20;59.50;;;;;;4996549;28;20054;-45
2022/12/08 00:33:59;;;;;;;15.73;8.45;;;8.20;59.50;;;;;;4998543;28;20053;-43
2022/12/08 00:36:27;;;;;;;14.82;8.57;;;8.20;59.50;;;;;;5005194;28;20058;-44
2022/12/08 00:38:54;;;;;;;11.00;8.10;;;8.20;59.40;;;;;;5004078;28;20057;-44
2022/12/08 00:44:08;;;;;;;13.43;7.72;;;8.20;59.40;;;;;;5003835;28;20347;-42
2022/12/08 00:46:35;;;;;;;17.42;9.35;;;8.20;59.40;;;;;;5005318;28;20050;-44
2022/12/08 00:49:03;;;;;;;13.05;8.00;;;8.20;59.40;;;;;;5002946;28;20060;-49
2022/12/08 00:51:31;;;;;;;16.40;7.35;;;8.20;59.30;;;;;;4996379;28;20058;-43
2022/12/08 00:53:58;;;;;;;13.75;7.70;;;8.20;59.40;;;;;;5001725;28;20417;-43
2022/12/08 00:56:26;;;;;;;13.40;6.82;;;8.20;59.30;;;;;;5002590;28;20424;-45
2022/12/08 00:58:53;;;;;;;10.90;6.88;;;8.20;59.30;;;;;;5000799;28;20053;-47
2022/12/08 01:01:22;;;;;;;12.45;6.80;;;8.20;59.30;;;;;;4995921;28;20049;-42
2022/12/08 01:03:49;;;;;;;10.90;6.28;;;8.20;59.30;;;;;;5002583;28;20053;-44
2022/12/08 01:06:17;;;;;;;14.70;7.00;;;8.20;59.20;;;;;;5003996;28;20061;-42
2022/12/08 01:08:44;;;;;;;8.90;5.93;;;8.20;59.20;;;;;;4999630;28;20050;-47
2022/12/08 01:11:13;;;;;;;12.40;6.30;;;8.20;59.20;;;;;;4998161;28;20081;-44
2022/12/08 01:13:41;;;;;;;11.40;5.97;;;8.20;59.30;;;;;;5001953;28;20054;-46
2022/12/08 01:16:09;;;;;;;11.13;6.75;;;8.20;59.20;;;;;;5002834;28;20052;-47
2022/12/08 01:18:38;;;;;;;12.27;6.60;;;8.20;59.20;;;;;;5000430;28;20054;-43
2022/12/08 01:21:06;;;;;;;12.10;7.03;;;8.20;59.30;;;;;;4996896;28;20094;-49
2022/12/08 01:23:34;;;;;;;10.90;6.38;;;8.20;59.30;;;;;;5005294;28;20072;-46
2022/12/08 01:26:03;;;;;;;11.35;6.35;;;8.20;59.30;;;;;;5000384;28;20065;-46
2022/12/08 01:28:31;;;;;;;15.60;7.65;;;8.20;59.20;;;;;;5001817;28;20062;-43
2022/12/08 01:30:59;;;;;;;10.77;6.80;;;8.20;59.20;;;;;;4998722;28;20053;-42
2022/12/08 01:33:26;;;;;;;11.32;6.40;;;8.10;59.20;;;;;;5002854;28;20046;-42
2022/12/08 01:35:55;;;;;;;10.98;6.97;;;8.20;59.20;;;;;;4997941;28;20049;-43
2022/12/08 01:38:23;;;;;;;11.77;6.95;;;8.20;59.20;;;;;;5002713;28;20050;-45
2022/12/08 01:40:50;;;;;;;9.90;6.20;;;8.10;59.10;;;;;;4997414;28;20057;-43
2022/12/08 01:43:19;;;;;;;14.13;5.68;;;8.10;59.10;;;;;;5003197;28;20066;-43
2022/12/08 01:45:47;;;;;;;7.28;5.68;;;8.20;59.20;;;;;;5004652;28;20046;-49
2022/12/08 01:48:18;;;;;;;9.90;5.90;;;8.10;59.10;;;;;;4999351;28;20058;-43
2022/12/08 01:50:47;;;;;;;8.45;5.72;;;8.10;59.10;;;;;;4996836;28;20054;-47
2022/12/08 01:53:19;;;;;;;10.35;5.55;;;8.20;59.10;;;;;;5004376;28;20057;-42
2022/12/08 01:55:51;;;;;;;11.40;6.28;;;8.10;59.10;;;;;;5000487;28;20053;-43
2022/12/08 01:58:23;;;;;;;10.02;6.00;;;8.10;59.10;;;;;;5001930;28;20057;-46
2022/12/08 02:00:51;;;;;;;8.23;5.20;;;8.20;59.10;;;;;;4998507;28;20053;-49
2022/12/08 02:03:23;;;;;;;8.30;5.07;;;8.10;59.10;;;;;;4999346;28;20062;-55
2022/12/08 02:05:52;;;;;;;9.05;5.18;;;8.10;59.00;;;;;;4997289;28;20061;-53
2022/12/08 02:08:22;;;;;;;9.23;5.15;;;8.10;59.10;;;;;;4998816;28;20062;-55
2022/12/08 02:10:51;;;;;;;7.38;4.55;;;8.10;59.10;;;;;;4997481;28;20054;-55
2022/12/08 02:13:21;;;;;;;8.63;4.47;;;8.10;59.10;;;;;;4999560;28;20516;-55
2022/12/08 02:15:58;;;;;;;5.93;4.15;;;8.10;59.10;;;;;;5000584;28;20068;-55
2022/12/08 02:18:37;;;;;;;6.68;4.40;;;8.20;59.10;;;;;;4991295;28;20058;-54
2022/12/08 02:21:09;;;;;;;5.03;3.78;;;8.10;59.00;;;;;;4995804;28;20077;-54
2022/12/08 02:23:47;;;;;;;4.82;3.33;;;8.10;59.00;;;;;;5002411;28;20057;-55
2022/12/08 02:26:43;;;;;;;5.53;3.67;;;8.10;59.00;;;;;;5000321;28;20057;-53
2022/12/08 02:29:39;;;;;;;5.32;3.42;;;8.20;59.00;;;;;;5002237;28;20056;-50
2022/12/08 02:32:24;;;;;;;6.03;3.80;;;8.20;59.00;;;;;;4997483;28;20053;-53
2022/12/08 02:34:59;;;;;;;4.95;3.30;;;8.20;59.00;;;;;;4992416;28;20707;-51
2022/12/08 02:37:31;;;;;;;6.25;3.60;;;8.20;59.00;;;;;;4989495;28;20059;-51
2022/12/08 02:40:02;;;;;;;5.40;3.50;;;8.20;59.00;;;;;;4993396;28;20061;-55
2022/12/08 02:42:36;;;;;;;6.72;3.88;;;8.10;58.90;;;;;;4997978;28;20053;-53
2022/12/08 02:45:06;;;;;;;;;;;8.20;59.00;;;;;;5003469;28;20054;-55
2022/12/08 02:47:34;;;;;;;10.75;4.13;;;8.20;59.10;;;;;;5001229;28;20377;-55
2022/12/08 02:50:03;;;;;;;7.28;3.65;;;8.20;58.90;;;;;;4997232;28;20050;-55
2022/12/08 02:52:41;;;;;;;4.95;3.42;;;8.20;58.90;;;;;;4997946;28;20058;-54
2022/12/08 02:55:18;;;;;;;5.13;3.08;;;8.20;58.80;;;;;;4997588;28;20049;-54
2022/12/08 02:58:10;;;;;;;4.68;2.97;;;8.20;58.90;;;;;;5001316;28;20061;-50
2022/12/08 03:00:51;;;;;;;5.75;3.55;;;8.20;59.00;;;;;;4989869;28;20401;-55
2022/12/08 03:03:24;;;;;;;5.63;3.28;;;8.10;58.90;;;;;;4999516;28;20058;-55
2022/12/08 03:06:05;;;;;;;5.03;3.00;;;8.20;59.10;;;;;;4998102;28;20075;-55
2022/12/08 03:08:41;;;;;;;6.10;3.40;;;8.20;59.00;;;;;;5000309;28;20140;-53
2022/12/08 03:11:19;;;;;;;6.75;3.20;;;8.10;59.00;;;;;;4988370;28;20057;-55
2022/12/08 03:13:49;;;;;;;5.15;2.78;;;8.20;59.00;;;;;;5003832;28;20066;-54
2022/12/08 03:16:22;;;;;;;6.88;3.28;;;8.10;58.90;;;;;;4997974;28;20046;-52
2022/12/08 03:18:53;;;;;;;4.70;2.60;;;8.20;58.90;;;;;;5001241;28;20061;-55
2022/12/08 03:21:22;;;;;;;6.40;3.10;;;8.10;58.90;;;;;;4989956;28;20069;-55
2022/12/08 03:23:53;;;;;;;6.88;3.00;;;8.10;58.80;;;;;;5000960;28;20053;-54
2022/12/08 03:26:25;;;;;;;5.28;3.30;;;8.20;58.80;;;;;;4996630;28;20046;-55
2022/12/08 03:28:52;;;;;;;5.20;2.65;;;8.10;58.80;;;;;;4994380;28;20061;-52
2022/12/08 03:31:21;;;;;;;4.43;2.95;;;8.10;58.70;;;;;;4987869;28;20053;-47
2022/12/08 03:33:52;;;;;;;4.57;2.50;;;8.10;58.70;;;;;;4993229;28;20064;-55
2022/12/08 03:36:20;;;;;;;3.92;2.60;;;8.10;58.70;;;;;;5001808;28;20069;-55
2022/12/08 03:38:52;;;;;;;4.88;2.45;;;8.10;58.60;;;;;;5000495;28;20065;-54
2022/12/08 03:41:19;;;;;;;4.45;2.80;;;8.10;58.60;;;;;;4992110;28;20065;-55
2022/12/08 03:43:48;;;;;;;4.53;2.33;;;8.10;58.60;;;;;;5001312;28;20050;-44
2022/12/08 03:46:16;;;;;;;3.95;2.55;;;8.10;58.60;;;;;;4991657;28;20051;-45
2022/12/08 03:48:43;;;;;;;3.90;2.70;;;8.10;58.60;;;;;;4998624;28;20495;-47
2022/12/08 03:51:11;;;;;;;6.00;2.90;;;8.10;58.60;;;;;;4991068;28;20046;-43
2022/12/08 03:53:38;;;;;;;6.20;3.05;;;8.10;58.70;;;;;;5000283;28;20060;-44
2022/12/08 03:56:16;;;;;;;5.30;2.90;;;8.10;58.70;;;;;;4999616;28;20137;-44
2022/12/08 03:58:43;;;;;;;5.18;2.78;;;8.10;58.70;;;;;;5002764;28;20083;-43
2022/12/08 04:01:11;;;;;;;6.60;3.83;;;8.10;58.80;;;;;;4996857;28;20053;-47
2022/12/08 04:03:38;;;;;;;5.47;3.25;;;8.10;58.80;;;;;;5005724;28;20057;-44
2022/12/08 04:06:06;;;;;;;5.20;2.90;;;8.10;58.80;;;;;;5004979;28;20053;-44
2022/12/08 04:08:33;;;;;;;4.28;2.92;;;8.10;58.80;;;;;;5003612;28;20053;-43
2022/12/08 04:11:01;;;;;;;5.55;2.92;;;8.10;58.80;;;;;;4989941;28;20061;-44
2022/12/08 04:13:30;;;;;;;5.72;3.10;;;8.10;58.80;;;;;;5006912;28;20395;-49
2022/12/08 04:15:57;;;;;;;4.97;3.33;;;8.10;58.80;;;;;;5003652;28;20963;-44
2022/12/08 04:18:24;;;;;;;3.67;2.72;;;8.10;58.80;;;;;;5003737;28;20058;-47
2022/12/08 04:20:51;;;;;;;7.25;2.70;;;8.10;58.80;;;;;;4995393;28;20062;-44
2022/12/08 04:23:19;;;;;;;4.82;2.83;;;8.10;59.30;;;;;;5004547;28;20061;-45
2022/12/08 04:25:46;;;;;;;3.75;3.03;;;8.10;58.80;;;;;;5002095;28;20053;-51
2022/12/08 04:28:13;;;;;;;4.85;2.85;;;8.20;58.80;;;;;;5004097;28;20058;-43
2022/12/08 04:30:42;;;;;;;7.20;3.33;;;8.10;58.80;;;;;;4992631;28;20061;-44
2022/12/08 04:33:09;;;;;;;5.88;3.28;;;8.10;58.70;;;;;;5004875;28;20054;-43
2022/12/08 04:35:36;;;;;;;6.45;3.45;;;8.20;58.80;;;;;;5004247;28;20064;-44
2022/12/08 04:38:04;;;;;;;7.43;3.33;;;8.10;58.60;;;;;;5003213;28;20497;-43
2022/12/08 04:40:32;;;;;;;5.60;3.53;;;8.10;58.60;;;;;;4994346;28;20793;-44
2022/12/08 04:42:59;;;;;;;4.70;3.00;;;8.10;58.60;;;;;;5004175;28;20060;-44
2022/12/08 04:45:26;;;;;;;6.30;3.70;;;8.10;58.60;;;;;;5001375;28;21066;-46
2022/12/08 04:47:55;;;;;;;5.25;3.55;;;8.10;58.60;;;;;;5004418;28;20057;-42
2022/12/08 04:50:22;;;;;;;5.72;3.10;;;8.10;58.60;;;;;;4995536;28;20426;-48
2022/12/08 04:52:49;;;;;;;3.95;2.88;;;8.10;58.60;;;;;;4992196;28;20054;-47
2022/12/08 04:55:18;;;;;;;5.00;3.20;;;8.10;58.60;;;;;;5003595;28;20057;-43
2022/12/08 04:57:45;;;;;;;6.30;3.08;;;8.10;58.70;;;;;;5001201;28;20520;-43
2022/12/08 05:00:13;;;;;;;5.00;3.28;;;8.10;58.70;;;;;;4999502;28;20065;-43
2022/12/08 05:02:40;;;;;;;5.45;3.55;;;8.10;58.60;;;;;;4999649;28;20065;-45
2022/12/08 05:05:09;;;;;;;5.70;3.78;;;8.10;58.60;;;;;;5003657;28;20065;-42
2022/12/08 05:07:37;;;;;;;8.32;4.03;;;8.10;58.60;;;;;;4996017;28;20057;-44
2022/12/08 05:10:05;;;;;;;5.25;3.35;;;8.10;58.60;;;;;;4995912;28;20528;-45
2022/12/08 05:12:32;;;;;;;10.98;4.25;;;8.10;58.60;;;;;;4995331;28;20061;-45
2022/12/08 05:14:59;;;;;;;7.38;4.03;;;8.10;58.60;;;;;;5002081;28;20061;-45
2022/12/08 05:17:26;;;;;;;7.15;4.30;;;8.00;58.60;;;;;;4981383;28;20057;-43
2022/12/08 05:19:54;;;;;;;9.32;4.25;;;8.00;58.60;;;;;;5002207;28;20054;-43
2022/12/08 05:22:22;;;;;;;9.00;4.88;;;8.10;58.60;;;;;;4994064;28;20064;-43
2022/12/08 05:24:50;;;;;;;9.95;4.72;;;8.10;58.70;;;;;;4992457;28;20061;-47
2022/12/08 05:27:17;;;;;;;6.05;4.38;;;8.00;58.70;;;;;;4992470;28;20489;-44
2022/12/08 05:29:44;;;;;;;10.20;5.38;;;8.00;58.70;;;;;;4999532;28;20057;-41
2022/12/08 05:32:11;;;;;;;9.65;5.18;;;8.00;58.70;;;;;;4991197;28;20060;-41
2022/12/08 05:34:39;;;;;;;8.07;5.18;;;8.00;58.60;;;;;;5001646;28;20057;-43
2022/12/08 05:37:06;;;;;;;10.30;4.80;;;8.00;58.60;;;;;;4995487;28;20062;-43
2022/12/08 05:39:34;;;;;;;9.75;5.97;;;8.00;58.70;;;;;;4996337;28;20057;-48
2022/12/08 05:42:02;;;;;;;8.07;5.13;;;8.00;58.70;;;;;;4996642;28;20061;-44
2022/12/08 05:44:29;;;;;;;7.13;5.22;;;8.00;58.70;;;;;;5003692;28;20064;-42
2022/12/08 05:46:56;;;;;;;11.07;6.00;;;8.00;58.70;;;;;;5004479;28;20050;-42
2022/12/08 05:49:23;;;;;;;8.48;5.75;;;8.00;58.80;;;;;;4986534;28;20050;-44
2022/12/08 05:51:51;;;;;;;8.75;5.30;;;8.00;58.80;;;;;;4996773;28;20053;-44
2022/12/08 05:54:18;;;;;;;10.07;5.43;;;8.00;58.80;;;;;;4995513;28;20406;-43
2022/12/08 05:56:47;;;;;;;10.45;5.93;;;8.00;58.80;;;;;;5001066;28;20065;-46
2022/12/08 05:59:15;;;;;;;9.25;5.50;;;8.00;58.90;;;;;;4990849;28;20058;-47
2022/12/08 06:01:42;;;;;;;9.32;5.93;;;8.00;58.90;;;;;;4999230;28;20532;-43
2022/12/08 06:04:10;;;;;;;9.55;6.07;;;8.00;58.90;;;;;;5002120;28;20064;-43
2022/12/08 06:06:38;;;;;;;8.77;5.65;;;8.00;58.80;;;;;;5002567;28;20054;-49
2022/12/08 06:09:06;;;;;;;6.97;5.20;;;8.00;58.80;;;;;;4997849;28;20168;-47
2022/12/08 06:11:33;;;;;;;8.52;5.15;;;8.00;58.90;;;;;;4998237;28;20054;-44
2022/12/08 06:14:02;;;;;;;10.60;6.05;;;8.00;59.00;;;;;;4997382;28;20065;-45
2022/12/08 06:16:29;;;;;;;9.52;6.32;;;8.00;59.00;;;;;;4992520;28;20050;-43
2022/12/08 06:18:57;;;;;;;12.65;7.10;;;8.00;58.90;;;;;;5001296;28;20060;-47
2022/12/08 06:21:24;;;;;;;11.15;6.32;;;8.00;58.90;;;;;;4999020;28;20073;-44
2022/12/08 06:23:53;;;;;;;12.45;6.72;;;8.10;58.80;;;;;;5001588;28;20057;-48
2022/12/08 06:26:21;;;;;;;13.60;6.82;;;8.10;58.80;;;;;;5000346;28;20426;-46
2022/12/08 06:28:49;;;;;;;13.43;6.63;;;8.10;58.80;;;;;;4998839;28;20058;-50
2022/12/08 06:31:22;;;;;;;13.75;8.00;;;8.10;58.80;;;;;;4998959;28;20061;-45
2022/12/08 06:33:50;;;;;;;13.20;7.20;;;8.10;58.80;;;;;;5000157;28;20073;-46
2022/12/08 06:36:19;;;;;;;13.20;7.28;;;8.10;58.80;;;;;;4984218;28;20054;-43
2022/12/08 06:38:47;;;;;;;13.40;7.35;;;8.00;58.70;;;;;;4997193;28;20413;-45
2022/12/08 06:41:15;;;;;;;12.00;7.60;;;8.10;58.80;;;;;;4997051;28;20409;-46
2022/12/08 06:43:43;;;;;;;13.77;7.35;;;8.10;58.80;;;;;;4991072;28;20054;-48
2022/12/08 06:46:13;;;;;;;16.92;7.93;;;8.10;58.80;;;;;;4989956;28;20062;-55
2022/12/08 06:48:41;;;;;;;19.70;8.35;;;8.00;58.70;;;;;;4986442;28;20058;-55
2022/12/08 06:51:10;;;;;;;14.85;7.85;;;8.00;58.70;;;;;;4983034;28;20054;-54
2022/12/08 06:53:37;;;;;;;14.82;8.95;;;8.00;58.70;;;;;;4992420;28;20057;-47
2022/12/08 06:56:06;;;;;;;11.57;7.13;;;8.10;58.70;;;;;;4997799;28;20061;-51
2022/12/08 06:58:33;;;;;;;16.80;7.80;;;8.10;58.70;;;;;;4995126;28;20049;-54
2022/12/08 07:01:05;;;;;;;12.52;7.50;;;8.00;58.70;;;;;;4983881;28;20054;-56
2022/12/08 07:03:32;;;;;;;11.48;6.70;;;8.10;58.70;;;;;;4985475;28;20445;-54
2022/12/08 07:06:01;;;;;;;11.95;7.00;;;8.10;58.70;;;;;;4995381;28;20050;-53
2022/12/08 07:08:28;;;;;;;11.50;6.50;;;8.00;58.70;;;;;;5001152;28;20052;-55
2022/12/08 07:10:56;;;;;;;14.05;6.63;;;8.10;58.80;;;;;;4985352;28;20058;-55
2022/12/08 07:13:23;;;;;;;11.32;7.05;;;8.00;58.70;;;;;;4998007;28;20060;-53
2022/12/08 07:15:51;;;;;;;11.23;5.80;;;8.10;58.70;;;;;;5001420;28;20456;-55
2022/12/08 07:18:18;;;;;;;10.57;6.43;;;8.00;58.60;;;;;;4990991;28;20053;-50
2022/12/08 07:20:45;;;;;;;9.95;5.97;;;8.10;58.60;;;;;;4978975;28;20062;-54
2022/12/08 07:23:14;;;;;;;10.15;6.10;;;8.10;58.70;;;;;;4987934;28;20063;-48
2022/12/08 07:25:41;;;;;;;11.32;7.10;;;8.10;58.70;;;;;;4995200;28;20092;-52
2022/12/08 07:28:10;;;;;;;12.65;6.35;;;8.10;58.70;;;;;;4999917;28;20489;-55
2022/12/08 07:30:38;;;;;;;14.70;7.55;;;8.10;58.70;;;;;;4993116;28;20057;-53
2022/12/08 07:33:05;;;;;;;12.40;7.15;;;8.10;58.60;;;;;;4976332;28;20049;-53
2022/12/08 07:35:33;;;;;;;11.68;6.90;;;8.10;58.60;;;;;;4989962;28;20065;-55
2022/12/08 07:38:00;;;;;;;12.38;6.65;;;8.10;58.60;;;;;;4998251;28;20050;-55
2022/12/08 07:40:28;;;;;;;9.65;5.90;;;8.10;58.60;;;;;;4994552;28;20054;-49
2022/12/08 07:42:56;;;;;;;11.45;6.47;;;8.10;58.60;;;;;;4993378;28;20409;-52
2022/12/08 07:45:23;;;;;;;10.90;6.10;;;8.10;58.50;;;;;;4997141;28;20062;-53
2022/12/08 07:47:51;;;;;;;8.85;6.07;;;8.10;58.60;;;;;;4995725;28;20050;-55
2022/12/08 07:50:18;;;;;;;10.43;5.90;;;8.10;58.60;;;;;;4996846;28;20494;-53
2022/12/08 07:52:45;;;;;;;11.38;5.95;;;8.10;58.60;;;;;;4998681;28;20062;-55
2022/12/08 07:55:12;;;;;;;9.68;5.80;;;8.10;58.50;;;;;;4999422;28;20406;-54
2022/12/08 07:57:41;;;;;;;8.75;5.28;;;8.10;58.40;;;;;;4999376;28;20050;-55
2022/12/08 08:00:10;;;;;;;9.35;5.90;;;8.00;58.30;;;;;;5000718;28;20062;-55
2022/12/08 08:02:37;;;;;;;12.18;6.70;;;8.00;58.30;;;;;;4994249;28;20061;-54
2022/12/08 08:05:05;;;;;;;11.70;6.35;;;8.00;58.40;;;;;;4994864;28;20061;-54
2022/12/08 08:07:33;;;;;;;7.65;5.43;;;8.10;58.50;;;;;;4997511;28;20049;-55
2022/12/08 08:10:00;;;;;;;9.00;5.53;;;8.00;58.40;;;;;;4999908;28;20056;-54
2022/12/08 08:12:27;;;;;;;9.25;5.43;;;8.00;58.40;;;;;;4995748;28;20060;-54
2022/12/08 08:14:56;;;;;;;10.45;6.28;;;8.10;58.40;;;;;;4991046;28;20056;-47
2022/12/08 08:17:24;;;;;;;11.23;6.43;;;8.10;58.40;;;;;;4997679;28;20050;-55
2022/12/08 08:19:51;;;;;;;11.15;5.55;;;8.10;58.80;;;;;;4997033;28;20061;-55
2022/12/08 08:22:18;;;;;;;10.23;5.82;;;8.10;58.30;;;;;;4991725;28;20489;-52
2022/12/08 08:24:45;;;;;;;9.30;5.10;;;8.10;58.40;;;;;;4998410;28;20061;-53
2022/12/08 08:27:13;;;;;;;9.35;5.65;;;8.10;58.40;;;;;;4992670;28;20054;-53
2022/12/08 08:29:40;;;;;;;9.40;5.35;;;8.10;58.40;;;;;;4997065;28;20058;-48
2022/12/08 08:32:09;;;;;;;12.35;6.72;;;8.10;58.30;;;;;;4997006;28;20054;-50
2022/12/08 08:34:36;;;;;;;9.43;5.60;;;8.10;58.30;;;;;;4996772;28;20058;-55
2022/12/08 08:37:04;;;;;;;11.55;6.22;;;8.10;58.30;;;;;;4986414;28;20058;-54
2022/12/08 08:39:31;;;;;;;11.52;5.82;;;8.10;58.20;;;;;;5003781;28;20057;-55
2022/12/08 08:41:59;;;;;;;14.20;6.97;;;8.10;58.30;;;;;;5001554;28;20492;-55
2022/12/08 08:44:26;;;;;;;9.88;6.03;;;8.10;58.20;;;;;;4982028;28;20383;-47
2022/12/08 08:46:54;;;;;;;11.82;6.80;;;8.10;58.20;;;;;;4991226;28;20490;-54
2022/12/08 08:49:22;;;;;;;13.07;6.43;;;8.10;58.10;;;;;;5001770;28;20054;-55
2022/12/08 08:51:49;;;;;;;9.30;5.30;;;8.10;58.20;;;;;;4996291;28;20058;-55
2022/12/08 08:54:17;;;;;;;10.18;5.68;;;8.20;58.20;;;;;;5001889;28;20060;-54
2022/12/08 08:56:44;;;;;;;12.65;6.63;;;8.10;58.20;;;;;;4995744;28;20065;-55
2022/12/08 08:59:11;;;;;;;10.75;6.15;;;8.20;58.30;;;;;;4987052;28;20523;-55
2022/12/08 09:01:39;;;;;;;10.65;5.90;;;8.10;58.20;;;;;;4981665;28;20057;-55
2022/12/08 09:04:06;;;;;;;9.80;5.63;;;8.20;58.30;;;;;;5000328;28;20512;-52
2022/12/08 09:06:34;;;;;;;14.05;6.07;;;8.20;58.20;;;;;;4990089;28;20049;-43
2022/12/08 09:09:02;;;;;;;12.13;6.15;;;8.20;58.20;;;;;;4995742;28;20557;-45
2022/12/08 09:11:29;;;;;;;8.93;4.97;;;8.20;58.20;;;;;;4994695;28;20061;-45
2022/12/08 09:13:57;;;;;;;8.80;5.68;;;8.20;58.30;;;;;;4995282;28;20054;-45
2022/12/08 09:16:24;;;;;;;11.52;6.18;;;8.20;58.30;;;;;;5000664;28;20060;-45
2022/12/08 09:18:52;;;;;;;15.82;5.88;;;8.20;58.20;;;;;;5001655;28;20054;-45
2022/12/08 09:21:22;;;;;;;8.90;5.57;;;8.30;58.20;;;;;;4989973;28;20391;-47
2022/12/08 09:23:52;;;;;;;10.73;6.47;;;8.30;58.40;;;;;;4999302;28;20537;-44
2022/12/08 09:26:21;;;;;;;9.35;5.60;;;8.30;58.20;;;;;;5001731;28;20064;-45
2022/12/08 09:28:48;;;;;;;12.90;5.95;;;8.30;58.20;;;;;;4994989;28;20045;-42
2022/12/08 09:31:17;;;;;;;13.35;6.43;;;8.30;58.20;;;;;;4994813;28;20065;-50
2022/12/08 09:33:44;;;;;;;12.60;6.43;;;8.30;58.10;;;;;;4997341;28;20387;-42
2022/12/08 09:36:12;;;;;;;11.02;5.75;;;8.30;57.90;;;;;;5002976;28;20068;-42
2022/12/08 09:38:40;;;;;;;8.48;5.10;;;8.30;57.80;;;;;;5002817;28;20057;-42
2022/12/08 09:41:16;;;;;;;11.30;6.03;;;8.30;57.80;;;;;;4994886;28;20486;-42
2022/12/08 09:43:58;;;;;;;11.55;6.30;;;8.30;58.10;;;;;;4994565;28;20053;-43
2022/12/08 09:46:28;;;;;;;9.98;6.00;;;8.30;57.50;;;;;;4999374;28;20060;-43
2022/12/08 09:48:59;;;;;;;13.57;6.63;;;8.30;57.40;;;;;;4998904;28;20057;-44
2022/12/08 09:51:31;;;;;;;9.23;5.93;;;8.30;57.50;;;;;;4992387;28;20129;-43
2022/12/08 09:54:02;;;;;;;10.55;5.80;;;8.30;57.50;;;;;;5000398;28;20053;-41
2022/12/08 09:56:35;;;;;;;11.55;5.93;;;8.30;57.50;;;;;;4997326;28;20060;-42
2022/12/08 09:59:05;;;;;;;12.75;5.90;;;8.30;57.50;;;;;;5000824;28;20050;-41
2022/12/08 10:01:37;;;;;;;9.27;5.70;;;8.30;57.40;;;;;;4987124;28;20057;-45
2022/12/08 10:04:10;;;;;;;14.18;6.03;;;8.30;57.30;;;;;;4998834;28;20072;-43
2022/12/08 10:06:45;;;;;;;13.13;6.03;;;8.30;57.30;;;;;;4995413;28;20061;-44
2022/12/08 10:09:23;;;;;;;12.45;5.65;;;8.30;57.30;;;;;;5003204;28;20053;-43
2022/12/08 10:11:57;;;;;;;12.73;6.18;;;8.30;57.30;;;;;;4996071;28;20053;-45
2022/12/08 10:14:34;;;;;;;10.98;5.90;;;8.30;57.30;;;;;;5004682;28;20593;-43
2022/12/08 10:17:09;;;;;;;12.45;6.75;;;8.30;57.30;;;;;;5000512;28;20064;-46
2022/12/08 10:19:38;;;;;;;12.13;6.18;;;8.30;57.30;;;;;;4994632;28;20060;-44
2022/12/08 10:22:17;;;;;;;11.88;6.55;;;8.30;57.20;;;;;;4994912;28;20050;-43
2022/12/08 10:24:52;;;;;;;15.60;6.70;;;8.30;57.00;;;;;;4996254;28;20053;-48
2022/12/08 10:27:22;;;;;;;14.20;6.70;;;8.40;57.20;;;;;;5001053;28;20057;-44
2022/12/08 10:29:49;;;;;;;11.30;6.38;;;8.30;57.20;;;;;;4997904;28;20050;-42
2022/12/08 10:32:19;;;;;;;14.68;6.35;;;8.40;57.20;;;;;;4991304;28;20547;-46
2022/12/08 10:35:07;;;;;;;13.23;7.18;;;8.40;57.30;;;;;;5000302;28;20058;-46
2022/12/08 10:37:34;;;;;;;12.57;6.50;;;8.40;57.30;;;;;;5002440;28;20083;-44
2022/12/08 10:40:06;;;;;;;10.77;6.68;;;8.40;57.30;;;;;;5000778;28;20050;-43
2022/12/08 10:42:38;;;;;;;13.20;6.07;;;8.40;57.30;;;;;;5000040;28;20064;-42
2022/12/08 10:45:24;;;;;;;11.27;5.65;;;8.40;57.30;;;;;;5000904;28;20053;-45
2022/12/08 10:48:02;;;;;;;10.35;5.88;;;8.40;57.20;;;;;;5002040;28;20098;-42
2022/12/08 10:50:34;;;;;;;11.20;5.60;;;8.40;57.10;;;;;;4996450;28;20050;-46
2022/12/08 10:53:09;;;;;;;9.48;5.75;;;8.40;57.10;;;;;;4990055;28;20498;-45
2022/12/08 10:55:41;;;;;;;11.43;5.53;;;8.40;57.10;;;;;;4998287;28;20057;-45
2022/12/08 11:01:10;;;;;;;8.02;4.53;;;8.40;57.10;;;;;;5052927;27;20694;-45
2022/12/08 11:03:45;;;;;;;14.07;4.85;;;8.40;57.00;;;;;;5035906;28;20057;-47
2022/12/08 11:06:17;;;;;;;9.18;5.00;;;8.40;57.00;;;;;;5037016;28;20057;-43
2022/12/08 11:08:51;;;;;;;10.68;5.07;;;8.40;57.00;;;;;;5025312;28;20057;-42
2022/12/08 11:11:20;;;;;;;8.52;4.68;;;8.40;56.90;;;;;;5026791;28;20060;-44
2022/12/08 11:13:50;;;;;;;11.73;4.93;;;8.40;57.00;;;;;;5029626;28;20045;-45
2022/12/08 11:16:20;;;;;;;11.88;6.13;;;8.40;57.00;;;;;;5032116;28;20057;-42
2022/12/08 11:18:56;;;;;;;11.45;5.57;;;8.40;56.90;;;;;;5038689;28;20497;-43
2022/12/08 11:21:34;;;;;;;9.85;5.50;;;8.40;56.70;;;;;;5034585;28;20061;-44
2022/12/08 11:24:24;;;;;;;10.55;5.18;;;8.50;57.10;;;;;;5034212;28;20056;-42
2022/12/08 11:26:54;;;;;;;10.35;4.65;;;8.50;56.60;;;;;;5038085;28;20136;-47
2022/12/08 11:29:22;;;;;;;9.43;6.03;;;8.50;56.80;;;;;;5033400;28;20049;-49
2022/12/08 11:31:54;;;;;;;9.05;4.85;;;8.50;56.70;;;;;;5033441;28;20698;-46
2022/12/08 11:34:30;;;;;;;8.75;4.60;;;8.50;56.60;;;;;;5037472;28;20489;-47
2022/12/08 11:36:59;;;;;;;6.95;4.43;;;8.60;56.80;;;;;;5031527;28;20052;-48
2022/12/08 11:39:29;;;;;;;10.65;5.43;;;8.60;56.80;;;;;;5037137;28;20399;-42
2022/12/08 11:41:58;;;;;;;12.25;4.95;;;8.60;56.70;;;;;;5032106;28;20053;-43
2022/12/08 11:44:33;;;;;;;9.55;5.35;;;8.60;56.60;;;;;;5029516;28;20037;-50
2022/12/08 11:47:09;;;;;;;11.98;4.68;;;8.60;56.50;;;;;;5036987;28;20059;-43
2022/12/08 11:49:38;;;;;;;9.40;4.93;;;8.60;56.30;;;;;;5031453;28;20072;-46
2022/12/08 11:52:12;;;;;;;8.88;5.00;;;8.70;56.30;;;;;;5033543;28;20056;-44
2022/12/08 11:54:46;;;;;;;10.15;5.03;;;8.70;56.30;;;;;;5030600;28;20465;-45
2022/12/08 11:57:15;;;;;;;12.20;5.43;;;8.70;56.20;;;;;;5033726;28;20468;-42
2022/12/08 11:59:45;;;;;;;10.15;5.22;;;8.70;56.10;;;;;;5034081;28;20052;-46
2022/12/08 12:02:17;;;;;;;12.73;6.05;;;8.70;56.20;;;;;;5035705;28;20489;-44
2022/12/08 12:04:49;;;;;;;8.88;5.80;;;8.70;56.20;;;;;;5039274;28;20057;-45
2022/12/08 12:07:38;;;;;;;13.13;6.03;;;8.80;56.30;;;;;;5035931;28;20053;-48
2022/12/08 12:10:34;;;;;;;5.78;4.18;;;8.80;56.30;;;;;;5036595;28;20053;-46
2022/12/08 12:13:13;;;;;;;11.02;5.57;;;8.80;56.30;;;;;;5021725;28;20402;-42
2022/12/08 12:16:12;;;;;;;12.20;5.40;;;8.80;55.80;;;;;;5025011;28;20056;-43
2022/12/08 12:21:57;;;;;;;10.32;5.57;;;8.80;55.80;;;;;;5015246;28;20054;-44
2022/12/08 12:27:38;;;;;;;14.23;5.55;;;8.90;55.70;;;;;;4992536;28;20397;-42
2022/12/08 12:30:18;;;;;;;11.60;5.95;;;8.90;55.70;;;;;;5029709;28;20053;-41
2022/12/08 12:36:24;;;;;;;8.75;3.83;;;8.90;55.90;;;;;;5024265;28;20061;-46
2022/12/08 12:39:05;;;;;;;9.43;4.85;;;9.00;55.90;;;;;;5025936;28;20054;-42
2022/12/08 12:41:42;;;;;;;9.20;4.70;;;9.00;55.90;;;;;;5018901;28;20057;-49
2022/12/08 12:44:44;;;;;;;9.02;4.65;;;9.00;55.70;;;;;;5020080;28;20057;-42
2022/12/08 12:47:35;;;;;;;9.27;4.60;;;9.00;55.50;;;;;;5021827;28;20057;-43
2022/12/08 12:50:08;;;;;;;11.73;4.55;;;9.00;55.40;;;;;;5021269;28;20053;-48
2022/12/08 12:52:59;;;;;;;8.15;4.18;;;9.00;55.20;;;;;;5021309;28;20464;-44
2022/12/08 12:55:54;;;;;;;8.48;4.13;;;8.90;55.00;;;;;;5023958;28;20058;-45
2022/12/08 12:58:41;;;;;;;12.52;4.10;;;8.90;54.90;;;;;;5019119;28;20046;-44
2022/12/08 13:01:48;;;;;;;11.98;4.53;;;8.90;54.90;;;;;;5020285;28;20509;-47
2022/12/08 13:04:17;;;;;;;7.20;3.28;;;8.90;54.90;;;;;;5022334;28;20065;-48
2022/12/08 13:06:48;;;;;;;9.07;3.47;;;8.90;55.00;;;;;;5023645;28;20053;-43
2022/12/08 13:09:32;;;;;;;10.65;3.80;;;8.90;55.00;;;;;;5025074;28;20061;-48
2022/12/08 13:12:07;;;;;;;8.70;4.03;;;8.90;55.10;;;;;;5018304;28;20053;-43
2022/12/08 13:14:36;;;;;;;8.60;3.88;;;8.90;55.20;;;;;;5024500;28;20057;-43
2022/12/08 13:17:11;;;;;;;16.88;4.03;;;8.90;55.00;;;;;;5023544;28;20053;-42
2022/12/08 13:19:40;;;;;;;8.38;4.10;;;8.80;54.90;;;;;;5022019;28;20045;-41
2022/12/08 13:22:45;;;;;;;11.73;4.00;;;8.90;55.00;;;;;;5019692;28;20053;-42
2022/12/08 13:25:49;;;;;;;9.07;3.85;;;8.80;54.90;;;;;;5022589;28;20056;-43
2022/12/08 13:28:28;;;;;;;7.18;3.42;;;8.90;55.00;;;;;;5022619;28;20050;-46
2022/12/08 13:30:59;;;;;;;7.13;4.22;;;8.90;54.90;;;;;;5020270;28;20045;-47